Date,TemperatureHighF,TemperatureAvgF,TemperatureLowF,DewpointHighF,DewpointAvgF,DewpointLowF,HumidityHigh,HumidityAvg,HumidityLow,PressureMaxIn,PressureMinIn,WindSpeedMaxMPH,WindSpeedAvgMPH,GustSpeedMaxMPH,PrecipitationSumIn
2013-1-1,28,14,4,-100,-100,-100,0,0,100,0.00,40.00,0,-999,0,0.01
2013-1-2,20,6,-7,-100,-100,-100,0,0,100,0.00,40.00,0,-999,0,0.00
2013-1-3,37,15,-1,-100,-100,-100,0,0,100,0.00,40.00,0,-999,0,0.00
2013-1-4,41,20,7,-100,-100,-100,0,0,100,0.00,40.00,0,-999,0,0.00
2013-1-5,29,13,2,-100,-100,-100,0,0,100,0.00,40.00,0,-999,0,0.00
2013-1-6,40,29,16,-100,-100,-100,0,0,100,0.00,40.00,0,-999,0,0.02
2013-1-7,39,27,14,-100,-100,-100,0,0,100,0.00,40.00,0,-999,0,0.00
2013-1-8,32,28,25,-100,-100,-100,0,0,100,0.00,40.00,0,-999,0,0.01
2013-1-9,44,35,19,-100,-100,-100,0,0,100,0.00,40.00,0,-999,0,0.01
2013-1-10,41,34,24,-100,-100,-100,0,0,100,0.00,40.00,0,-999,0,0.01
2013-1-11,24,5,-11,-100,-100,-100,0,0,100,0.00,40.00,0,-999,0,0.00
2013-1-12,4,-6,-14,-100,-100,-100,0,0,100,0.00,40.00,0,-999,0,0.00
2013-1-13,2,-9,-24,-100,-100,-100,0,0,100,0.00,40.00,0,-999,0,0.00
2013-1-14,5,-5,-23,-100,-100,-100,0,0,100,0.00,40.00,0,-999,0,0.01
2013-1-15,33,17,3,-100,-100,-100,0,0,100,0.00,40.00,0,-999,0,0.01
2013-1-16,36,22,13,-100,-100,-100,0,0,100,0.00,40.00,0,-999,0,0.01
2013-1-17,38,22,12,-100,-100,-100,0,0,100,0.00,40.00,0,-999,0,0.00
2013-1-18,43,33,22,-100,-100,-100,0,0,100,0.00,40.00,0,-999,0,0.01
2013-1-19,45,26,13,-100,-100,-100,0,0,100,0.00,40.00,0,-999,0,0.00
2013-1-20,38,24,13,-100,-100,-100,0,0,100,0.00,40.00,0,-999,0,0.00
2013-1-21,41,24,11,-100,-100,-100,0,0,100,0.00,40.00,0,-999,0,0.00
2013-1-22,49,37,30,-100,-100,-100,0,0,100,0.00,40.00,0,-999,0,0.01
2013-1-23,49,41,32,-100,-100,-100,0,0,100,0.00,40.00,0,-999,0,0.01
2013-1-24,41,34,18,-100,-100,-100,0,0,100,0.00,40.00,0,-999,0,0.00
2013-1-25,41,26,15,-100,-100,-100,0,0,100,0.00,40.00,0,-999,0,0.00
2013-1-26,41,34,23,-100,-100,-100,0,0,100,0.00,40.00,0,-999,0,0.01
2013-1-27,36,31,22,-100,-100,-100,0,0,100,0.00,40.00,0,-999,0,0.00
2013-1-28,22,13,-5,-100,-100,-100,0,0,100,0.00,40.00,0,-999,0,0.00
2013-1-29,20,9,-6,-100,-100,-100,0,0,100,0.00,40.00,0,-999,0,0.00
2013-1-30,31,17,-4,-100,-100,-100,0,0,100,0.00,40.00,0,-999,0,0.00
2013-1-31,35,27,19,-100,-100,-100,0,0,100,0.00,40.00,0,-999,0,0.00
2013-2-1,34,24,6,-100,-100,-100,0,0,100,0.00,40.00,0,-999,0,0.00
2013-2-2,41,21,3,-100,-100,-100,0,0,100,0.00,40.00,0,-999,0,0.00
2013-2-3,40,24,12,-100,-100,-100,0,0,100,0.00,40.00,0,-999,0,0.00
2013-2-4,41,30,13,-100,-100,-100,0,0,100,0.00,40.00,0,-999,0,0.01
2013-2-5,42,35,29,-100,-100,-100,0,0,100,0.00,40.00,0,-999,0,0.01
2013-2-6,37,27,6,-100,-100,-100,0,0,100,0.00,40.00,0,-999,0,0.00
2013-2-7,36,19,-2,-100,-100,-100,0,0,100,0.00,40.00,0,-999,0,0.00
2013-2-8,34,23,13,-100,-100,-100,0,0,100,0.00,40.00,0,-999,0,0.01
2013-2-9,22,18,13,-100,-100,-100,0,0,100,0.00,40.00,0,-999,0,0.02
2013-2-10,18,13,2,-100,-100,-100,0,0,100,0.00,40.00,0,-999,0,0.01
2013-2-11,25,2,-12,-100,-100,-100,0,0,100,0.00,40.00,0,-999,0,0.01
2013-2-12,28,15,1,-100,-100,-100,0,0,100,0.00,40.00,0,-999,0,0.01
2013-2-13,36,19,9,-100,-100,-100,0,0,100,0.00,40.00,0,-999,0,0.01
2013-2-14,23,14,1,-100,-100,-100,0,0,100,0.00,40.00,0,-999,0,0.01
2013-2-15,30,18,-2,-100,-100,-100,0,0,100,0.00,40.00,0,-999,0,0.00
2013-2-16,43,28,11,-100,-100,-100,0,0,100,0.00,40.00,0,-999,0,0.01
2013-2-17,34,26,4,-100,-100,-100,0,0,100,0.00,40.00,0,-999,0,0.01
2013-2-18,24,8,-6,-100,-100,-100,0,0,100,0.00,40.00,0,-999,0,0.00
2013-2-19,37,23,6,-100,-100,-100,0,0,100,0.00,40.00,0,-999,0,0.01
2013-2-20,31,17,3,-100,-100,-100,0,0,100,0.00,40.00,0,-999,0,0.00
2013-2-21,26,11,1,-100,-100,-100,0,0,100,0.00,40.00,0,-999,0,0.00
2013-2-22,25,11,-3,-100,-100,-100,0,0,100,0.00,40.00,0,-999,0,0.00
2013-2-23,36,23,6,-100,-100,-100,0,0,100,0.00,40.00,0,-999,0,0.01
2013-2-24,24,15,2,-100,-100,-100,0,0,100,0.00,40.00,0,-999,0,0.02
2013-2-25,39,16,-5,-100,-100,-100,0,0,100,0.00,40.00,0,-999,0,0.01
2013-2-26,25,11,-2,-100,-100,-100,0,0,100,0.00,40.00,0,-999,0,0.01
2013-2-27,27,8,-10,-100,-100,-100,0,0,100,0.00,40.00,0,-999,0,0.00
2013-2-28,33,18,-2,-100,-100,-100,0,0,100,0.00,40.00,0,-999,0,0.01
2013-3-1,45,27,9,-100,-100,-100,0,0,100,0.00,40.00,0,-999,0,0.00
2013-3-2,48,36,20,-100,-100,-100,0,0,100,0.00,40.00,0,-999,0,0.01
2013-3-3,41,34,25,-100,-100,-100,0,0,100,0.00,40.00,0,-999,0,0.01
2013-3-4,22,14,-4,-100,-100,-100,0,0,100,0.00,40.00,0,-999,0,0.00
2013-3-5,45,20,-8,-100,-100,-100,0,0,100,0.00,40.00,0,-999,0,0.01
2013-3-6,43,33,23,-100,-100,-100,0,0,100,0.00,40.00,0,-999,0,0.01
2013-3-7,42,32,26,-100,-100,-100,0,0,100,0.00,40.00,0,-999,0,0.01
2013-3-8,38,31,25,-100,-100,-100,0,0,100,0.00,40.00,0,-999,0,0.00
2013-3-9,28,25,17,-100,-100,-100,0,0,100,0.00,40.00,0,-999,0,0.01
2013-3-10,45,26,5,-100,-100,-100,0,0,100,0.00,40.00,0,-999,0,0.00
2013-3-11,42,30,14,-100,-100,-100,0,0,100,0.00,40.00,0,-999,0,0.01
2013-3-12,41,26,7,-100,-100,-100,0,0,100,0.00,40.00,0,-999,0,0.00
2013-3-13,51,42,32,-100,-100,-100,0,0,100,0.00,40.00,0,-999,0,0.01
2013-3-14,53,44,37,-100,-100,-100,0,0,100,0.00,40.00,0,-999,0,0.01
2013-3-15,53,42,30,-100,-100,-100,0,0,100,0.00,40.00,0,-999,0,0.00
2013-3-16,44,33,23,-100,-100,-100,0,0,100,0.00,40.00,0,-999,0,0.00
2013-3-17,33,24,13,-100,-100,-100,0,0,100,0.00,40.00,0,-999,0,0.01
2013-3-18,29,22,9,-100,-100,-100,0,0,100,0.00,40.00,0,-999,0,0.00
2013-3-19,36,25,11,-100,-100,-100,0,0,100,0.00,40.00,0,-999,0,0.01
2013-3-20,42,32,13,-100,-100,-100,0,0,100,0.00,40.00,0,-999,0,0.01
2013-3-21,37,28,15,-100,-100,-100,0,0,100,0.00,40.00,0,-999,0,0.01
2013-3-22,20,14,6,-100,-100,-100,0,0,100,0.00,40.00,0,-999,0,0.01
2013-3-23,18,9,-2,-100,-100,-100,0,0,100,0.00,40.00,0,-999,0,0.03
2013-3-24,19,4,-12,-100,-100,-100,0,0,100,0.00,40.00,0,-999,0,0.01
2013-3-25,33,15,-10,-100,-100,-100,0,0,100,0.00,40.00,0,-999,0,0.01
2013-3-26,41,27,11,-100,-100,-100,0,0,100,0.00,40.00,0,-999,0,0.01
2013-3-27,44,28,12,-100,-100,-100,0,0,100,0.00,40.00,0,-999,0,0.01
2013-3-28,48,34,18,-100,-100,-100,0,0,100,0.00,40.00,0,-999,0,0.01
2013-3-29,49,42,29,-100,-100,-100,0,0,100,0.00,40.00,0,-999,0,0.01
2013-3-30,44,35,23,-100,-100,-100,0,0,100,0.00,40.00,0,-999,0,0.01
2013-3-31,52,38,21,-100,-100,-100,0,0,100,0.00,40.00,0,-999,0,0.00
2013-4-1,44,34,18,-100,-100,-100,0,0,100,0.00,40.00,0,-999,0,0.00
2013-4-2,46,35,25,-100,-100,-100,0,0,100,0.00,40.00,0,-999,0,0.00
2013-4-3,52,37,24,-100,-100,-100,0,0,100,0.00,40.00,0,-999,0,0.00
2013-4-4,55,40,27,-100,-100,-100,0,0,100,0.00,40.00,0,-999,0,0.00
2013-4-5,49,41,32,-100,-100,-100,0,0,100,0.00,40.00,0,-999,0,0.00
2013-4-6,47,36,27,-100,-100,-100,0,0,100,0.00,40.00,0,-999,0,0.00
2013-4-7,44,34,28,-100,-100,-100,0,0,100,0.00,40.00,0,-999,0,0.00
2013-4-8,30,21,11,-100,-100,-100,0,0,100,0.00,40.00,0,-999,0,0.02
2013-4-9,17,10,2,-100,-100,-100,0,0,100,0.00,40.00,0,-999,0,0.03
2013-4-10,33,25,4,-100,-100,-100,0,0,100,0.00,40.00,0,-999,0,0.02
2013-4-11,42,32,24,-100,-100,-100,0,0,100,0.00,40.00,0,-999,0,0.01
2013-4-12,39,30,22,-100,-100,-100,0,0,100,0.00,40.00,0,-999,0,0.00
2013-4-13,41,33,21,-100,-100,-100,0,0,100,0.00,40.00,0,-999,0,0.01
2013-4-14,32,22,11,-100,-100,-100,0,0,100,0.00,40.00,0,-999,0,0.00
2013-4-15,25,19,15,-100,-100,-100,0,0,100,0.00,40.00,0,-999,0,0.01
2013-4-16,22,14,11,-100,-100,-100,0,0,100,0.00,40.00,0,-999,0,0.03
2013-4-17,22,14,4,-100,-100,-100,0,0,100,0.00,40.00,0,-999,0,0.01
2013-4-18,34,22,3,-100,-100,-100,0,0,100,0.00,40.00,0,-999,0,0.01
2013-4-19,45,32,9,-100,-100,-100,0,0,100,0.00,40.00,0,-999,0,0.01
2013-4-20,47,36,26,-100,-100,-100,0,0,100,0.00,40.00,0,-999,0,0.01
2013-4-21,46,36,26,-100,-100,-100,0,0,100,0.00,40.00,0,-999,0,0.00
2013-4-22,32,19,10,-100,-100,-100,0,0,100,0.00,40.00,0,-999,0,0.01
2013-4-23,33,21,-7,-100,-100,-100,0,0,100,0.00,40.00,0,-999,0,0.01
2013-4-24,41,37,31,-100,-100,-100,0,0,100,0.00,40.00,0,-999,0,0.00
2013-4-25,48,39,23,-100,-100,-100,0,0,100,0.00,40.00,0,-999,0,0.01
2013-4-26,55,41,21,-100,-100,-100,0,0,100,0.00,40.00,0,-999,0,0.00
2013-4-27,60,43,25,-100,-100,-100,0,0,100,0.00,40.00,0,-999,0,0.00
2013-4-28,57,47,38,-100,-100,-100,0,0,100,0.00,40.00,0,-999,0,0.01
2013-4-29,53,43,29,-100,-100,-100,0,0,100,0.00,40.00,0,-999,0,0.01
2013-4-30,42,32,22,-100,-100,-100,0,0,100,0.00,40.00,0,-999,0,0.00
2013-5-1,28,21,7,-100,-100,-100,0,0,100,0.00,40.00,0,-999,0,0.01
2013-5-2,45,27,4,-100,-100,-100,0,0,100,0.00,40.00,0,-999,0,0.00
2013-5-3,51,37,20,-100,-100,-100,0,0,100,0.00,40.00,0,-999,0,0.01
2013-5-4,39,34,32,-100,-100,-100,0,0,100,0.00,40.00,0,-999,0,0.01
2013-5-5,47,37,28,-100,-100,-100,0,0,100,0.00,40.00,0,-999,0,0.01
2013-5-6,54,42,25,-100,-100,-100,0,0,100,0.00,40.00,0,-999,0,0.00
2013-5-7,56,40,30,-100,-100,-100,0,0,100,0.00,40.00,0,-999,0,0.01
2013-5-8,50,42,34,-100,-100,-100,0,0,100,0.00,40.00,0,-999,0,0.01
2013-5-9,56,44,30,-100,-100,-100,0,0,100,0.00,40.00,0,-999,0,0.01
2013-5-10,54,42,29,-100,-100,-100,0,0,100,0.00,40.00,0,-999,0,0.01
2013-5-11,58,44,29,-100,-100,-100,0,0,100,0.00,40.00,0,-999,0,0.01
2013-5-12,66,51,34,-100,-100,-100,0,0,100,0.00,40.00,0,-999,0,0.01
2013-5-13,69,58,43,-100,-100,-100,0,0,100,0.00,40.00,0,-999,0,0.00
2013-5-14,67,57,41,-100,-100,-100,0,0,100,0.00,40.00,0,-999,0,0.00
2013-5-15,67,50,36,-100,-100,-100,0,0,100,0.00,40.00,0,-999,0,0.00
2013-5-16,59,48,42,-100,-100,-100,0,0,100,0.00,40.00,0,-999,0,0.01
2013-5-17,60,46,35,-100,-100,-100,0,0,100,0.00,40.00,0,-999,0,0.02
2013-5-18,52,43,35,-100,-100,-100,0,0,100,0.00,40.00,0,-999,0,0.01
2013-5-19,42,36,34,-100,-100,-100,0,0,100,0.00,40.00,0,-999,0,0.01
2013-5-20,43,37,34,-100,-100,-100,0,0,100,0.00,40.00,0,-999,0,0.02
2013-5-21,50,42,32,-100,-100,-100,0,0,100,0.00,40.00,0,-999,0,0.05
2013-5-22,58,45,31,-100,-100,-100,0,0,100,0.00,40.00,0,-999,0,0.02
2013-5-23,65,51,35,-100,-100,-100,0,0,100,0.00,40.00,0,-999,0,0.01
2013-5-24,56,49,35,-100,-100,-100,0,0,100,0.00,40.00,0,-999,0,0.00
2013-5-25,63,49,32,-100,-100,-100,0,0,100,0.00,40.00,0,-999,0,0.01
2013-5-26,63,49,32,-100,-100,-100,0,0,100,0.00,40.00,0,-999,0,0.02
2013-5-27,58,50,36,-100,-100,-100,0,0,100,0.00,40.00,0,-999,0,0.01
2013-5-28,54,43,38,-100,-100,-100,0,0,100,0.00,40.00,0,-999,0,0.01
2013-5-29,49,41,35,-100,-100,-100,0,0,100,0.00,40.00,0,-999,0,0.02
2013-5-30,50,41,33,-100,-100,-100,0,0,100,0.00,40.00,0,-999,0,0.02
2013-5-31,55,43,31,-100,-100,-100,0,0,100,0.00,40.00,0,-999,0,0.00
2013-6-1,56,43,29,-100,-100,-100,0,0,100,0.00,40.00,0,-999,0,0.01
2013-6-2,67,53,34,-100,-100,-100,0,0,100,0.00,40.00,0,-999,0,0.00
2013-6-3,57,50,38,-100,-100,-100,0,0,100,0.00,40.00,0,-999,0,0.01
2013-6-4,48,40,29,-100,-100,-100,0,0,100,0.00,40.00,0,-999,0,0.04
2013-6-5,58,46,33,-100,-100,-100,0,0,100,0.00,40.00,0,-999,0,0.01
2013-6-6,63,50,32,-100,-100,-100,0,0,100,0.00,40.00,0,-999,0,0.04
2013-6-7,69,54,36,-100,-100,-100,0,0,100,0.00,40.00,0,-999,0,0.00
2013-6-8,66,55,42,-100,-100,-100,0,0,100,0.00,40.00,0,-999,0,0.00
2013-6-9,74,59,38,-100,-100,-100,0,0,100,0.00,40.00,0,-999,0,0.00
2013-6-10,79,67,55,-100,-100,-100,0,0,100,0.00,40.00,0,-999,0,0.00
2013-6-11,70,60,53,-100,-100,-100,0,0,100,0.00,40.00,0,-999,0,0.03
2013-6-12,72,59,39,-100,-100,-100,0,0,100,0.00,40.00,0,-999,0,0.02
2013-6-13,72,64,56,-100,-100,-100,0,0,100,0.00,40.00,0,-999,0,0.02
2013-6-14,61,53,45,-100,-100,-100,0,0,100,0.00,40.00,0,-999,0,0.02
2013-6-15,68,55,28,-100,-100,-100,0,0,100,0.00,40.00,0,-999,0,0.02
2013-6-16,73,60,36,-100,-100,-100,0,0,100,0.00,40.00,0,-999,0,0.01
2013-6-17,70,60,42,-100,-100,-100,0,0,100,0.00,40.00,0,-999,0,0.01
2013-6-18,71,60,39,-100,-100,-100,0,0,100,0.00,40.00,0,-999,0,0.02
2013-6-19,71,58,38,-100,-100,-100,0,0,100,0.00,40.00,0,-999,0,0.00
2013-6-20,62,48,44,-100,-100,-100,0,0,100,0.00,40.00,0,-999,0,0.00
2013-6-22,62,53,38,-100,-100,-100,0,0,100,0.00,40.00,0,-999,0,0.00
2013-6-23,66,58,35,-100,-100,-100,0,0,100,0.00,40.00,0,-999,0,0.02
2013-6-24,72,62,50,-100,-100,-100,0,0,100,0.00,40.00,0,-999,0,0.02
2013-6-25,65,55,44,-100,-100,-100,0,0,100,0.00,40.00,0,-999,0,0.01
2013-6-26,74,63,48,-100,-100,-100,0,0,100,0.00,40.00,0,-999,0,0.00
2013-6-27,79,69,52,-100,-100,-100,0,0,100,0.00,40.00,0,-999,0,0.00
2013-6-28,79,73,63,-100,-100,-100,0,0,100,0.00,40.00,0,-999,0,0.00
2013-6-29,73,64,55,-100,-100,-100,0,0,100,0.00,40.00,0,-999,0,0.01
2013-6-30,74,64,47,-100,-100,-100,0,0,100,0.00,40.00,0,-999,0,0.02
2013-7-1,72,64,47,-100,-100,-100,0,0,100,0.00,40.00,0,-999,0,0.01
2013-7-2,75,70,59,-100,-100,-100,0,0,100,0.00,40.00,0,-999,0,0.01
2013-7-3,76,68,57,-100,-100,-100,0,0,100,0.00,40.00,0,-999,0,0.04
2013-7-4,74,58,49,-100,-100,-100,0,0,100,0.00,40.00,0,-999,0,0.00
2013-7-5,72,63,48,-100,-100,-100,0,0,100,0.00,40.00,0,-999,0,0.03
2013-7-6,72,58,44,-100,-100,-100,0,0,100,0.00,40.00,0,-999,0,0.01
2013-7-7,75,60,43,-100,-100,-100,0,0,100,0.00,40.00,0,-999,0,0.00
2013-7-8,74,59,49,-100,-100,-100,0,0,100,0.00,40.00,0,-999,0,0.01
2013-7-9,79,62,45,-100,-100,-100,0,0,100,0.00,40.00,0,-999,0,0.01
2013-7-10,79,69,43,-100,-100,-100,0,0,100,0.00,40.00,0,-999,0,0.00
2013-7-11,81,69,50,-100,-100,-100,0,0,100,0.00,40.00,0,-999,0,0.01
2013-7-12,69,60,56,-100,-100,-100,0,0,100,0.00,40.00,0,-999,0,0.00
2013-7-13,72,59,49,-100,-100,-100,0,0,100,0.00,40.00,0,-999,0,0.01
2013-7-14,70,63,51,-100,-100,-100,0,0,100,0.00,40.00,0,-999,0,0.02
2013-7-15,76,65,48,-100,-100,-100,0,0,100,0.00,40.00,0,-999,0,0.00
2013-7-16,76,64,52,-100,-100,-100,0,0,100,0.00,40.00,0,-999,0,0.00
2013-7-17,74,67,55,-100,-100,-100,0,0,100,0.00,40.00,0,-999,0,0.02
2013-7-18,77,68,49,-100,-100,-100,0,0,100,0.00,40.00,0,-999,0,0.00
2013-7-19,79,70,59,-100,-100,-100,0,0,100,0.00,40.00,0,-999,0,0.01
2013-7-20,80,74,58,-100,-100,-100,0,0,100,0.00,40.00,0,-999,0,0.00
2013-7-21,80,70,53,-100,-100,-100,0,0,100,0.00,40.00,0,-999,0,0.00
2013-7-22,80,71,55,-100,-100,-100,0,0,100,0.00,40.00,0,-999,0,0.01
2013-7-23,64,58,53,-100,-100,-100,0,0,100,0.00,40.00,0,-999,0,0.00
2013-10-30,36,36,36,-100,-100,-100,0,0,100,0.00,40.00,0,-999,0,0.00
2013-10-31,41,32,13,-100,-100,-100,0,0,100,0.00,40.00,0,-999,0,0.00
2013-11-1,38,30,20,-100,-100,-100,0,0,100,0.00,40.00,0,-999,0,0.00
2013-11-2,49,42,27,-100,-100,-100,0,0,100,0.00,40.00,0,-999,0,0.00
2013-11-3,36,29,19,-100,-100,-100,0,0,100,0.00,40.00,0,-999,0,0.00
2013-11-12,52,37,23,-100,-100,-100,0,0,100,0.00,40.00,0,-999,0,0.00
2013-11-13,48,44,41,-100,-100,-100,0,0,100,0.00,40.00,0,-999,0,0.00
2013-11-14,38,34,31,-100,-100,-100,0,0,100,0.00,40.00,0,-999,0,0.00
2013-11-15,30,28,26,-100,-100,-100,0,0,100,0.00,40.00,0,-999,0,0.00
2013-11-16,26,24,20,-100,-100,-100,0,0,100,0.00,40.00,0,-999,0,0.00
2013-11-17,26,26,26,-100,-100,-100,0,0,100,0.00,40.00,0,-999,0,0.00
2013-11-18,44,40,35,-100,-100,-100,0,0,100,0.00,40.00,0,-999,0,0.00
2013-11-19,37,33,31,-100,-100,-100,0,0,100,0.00,40.00,0,-999,0,0.00
2013-11-20,37,26,15,-100,-100,-100,0,0,100,0.00,40.00,0,-999,0,0.00
2013-11-21,16,12,5,-100,-100,-100,0,0,100,0.00,40.00,0,-999,0,0.00
2013-11-22,29,24,17,-100,-100,-100,0,0,100,0.00,40.00,0,-999,0,0.00
2013-11-23,33,29,19,-100,-100,-100,0,0,100,0.00,40.00,0,-999,0,0.00
2013-11-24,38,32,21,-100,-100,-100,0,0,100,0.00,40.00,0,-999,0,0.00
2013-11-25,33,33,33,-100,-100,-100,0,0,100,0.00,40.00,0,-999,0,0.00
2013-11-26,37,25,12,-100,-100,-100,0,0,100,0.00,40.00,0,-999,0,0.00
2013-11-27,48,36,23,-100,-100,-100,0,0,100,0.00,40.00,0,-999,0,0.02
2013-11-28,46,34,23,-100,-100,-100,0,0,100,0.00,40.00,0,-999,0,0.01
2013-11-29,44,34,25,-100,-100,-100,0,0,100,0.00,40.00,0,-999,0,0.00
2013-11-30,37,30,20,-100,-100,-100,0,0,100,0.00,40.00,0,-999,0,0.00
2013-12-9,17,6,-19,-100,-100,-100,0,0,100,0.00,40.00,0,-999,0,0.01
2013-12-10,18,18,18,-100,-100,-100,0,0,100,0.00,40.00,0,-999,0,0.00
2013-12-11,28,19,14,-100,-100,-100,0,0,100,0.00,40.00,0,-999,0,0.00
2013-12-12,23,22,21,-100,-100,-100,0,0,100,0.00,40.00,0,-999,0,0.00
2013-12-13,30,25,19,-100,-100,-100,0,0,100,0.00,40.00,0,-999,0,0.00
2013-12-14,7,7,7,-100,-100,-100,0,0,100,0.00,40.00,0,-999,0,0.00
2013-12-15,41,34,23,-100,-100,-100,0,0,100,0.00,40.00,0,-999,0,0.00
2013-12-16,42,33,26,-100,-100,-100,0,0,100,0.00,40.00,0,-999,0,0.00
2013-12-17,45,37,22,-100,-100,-100,0,0,100,0.00,40.00,0,-999,0,0.00
2013-12-18,42,40,36,-100,-100,-100,0,0,100,0.00,40.00,0,-999,0,0.01
2013-12-19,30,18,9,-100,-100,-100,0,0,100,0.00,40.00,0,-999,0,0.00
2013-12-20,17,8,1,-100,-100,-100,0,0,100,0.00,40.00,0,-999,0,0.00
2013-12-21,24,12,-2,-100,-100,-100,0,0,100,0.00,40.00,0,-999,0,0.00
2013-12-22,26,14,-2,-100,-100,-100,0,0,100,0.00,40.00,0,-999,0,0.00
2013-12-23,34,28,17,-100,-100,-100,0,0,100,0.00,40.00,0,-999,0,0.02
2013-12-24,29,22,7,-100,-100,-100,0,0,100,0.00,40.00,0,-999,0,0.01
2013-12-25,34,19,5,-100,-100,-100,0,0,100,0.00,40.00,0,-999,0,0.00
2013-12-26,38,28,20,-100,-100,-100,0,0,100,0.00,40.00,0,-999,0,0.00
2013-12-27,26,26,25,-100,-100,-100,0,0,100,0.00,40.00,0,-999,0,0.00
2013-12-28,23,21,19,-100,-100,-100,0,0,100,0.00,40.00,0,-999,0,0.00
2013-12-30,33,27,21,-100,-100,-100,0,0,100,0.00,40.00,0,-999,0,0.00
2013-12-31,29,28,28,-100,-100,-100,0,0,100,0.00,40.00,0,-999,0,0.00